createdAt,value
2023-03-26T00:02:25.121Z,35.58
2023-03-26T00:04:51.553Z,35.42
2023-03-26T00:07:17.854Z,35.27
2023-03-26T00:09:44.148Z,35.59
2023-03-26T00:12:10.516Z,35.56
2023-03-26T00:14:36.835Z,35.65
2023-03-26T00:17:03.179Z,35.38
2023-03-26T00:19:29.533Z,35.82
2023-03-26T00:21:55.946Z,35.52
2023-03-26T00:24:22.244Z,35.61
2023-03-26T00:26:48.586Z,35.85
2023-03-26T00:29:15.102Z,35.97
2023-03-26T00:31:41.409Z,35.90
2023-03-26T00:34:07.750Z,35.52
2023-03-26T00:36:34.128Z,35.97
2023-03-26T00:39:00.435Z,35.81
2023-03-26T00:41:26.941Z,35.74
2023-03-26T00:43:53.459Z,35.97
2023-03-26T00:46:19.881Z,36.44
2023-03-26T00:48:46.337Z,36.04
2023-03-26T00:51:12.661Z,35.75
2023-03-26T00:53:39.055Z,35.94
2023-03-26T00:56:05.431Z,36.37
2023-03-26T00:58:31.788Z,36.05
2023-03-26T01:00:58.152Z,36.56
2023-03-26T01:03:26.975Z,36.42
2023-03-26T01:05:54.756Z,36.48
2023-03-26T01:08:21.223Z,36.54
2023-03-26T01:10:47.550Z,36.46
2023-03-26T01:13:13.856Z,36.43
2023-03-26T01:15:40.184Z,37.06
2023-03-26T01:18:06.566Z,36.84
2023-03-26T01:20:32.925Z,36.79
2023-03-26T01:22:59.279Z,36.63
2023-03-26T01:25:25.654Z,36.58
2023-03-26T01:27:52.046Z,36.89
2023-03-26T01:30:18.454Z,36.99
2023-03-26T01:32:44.862Z,36.63
2023-03-26T01:35:11.270Z,36.74
2023-03-26T01:37:37.615Z,36.96
2023-03-26T01:40:03.955Z,36.88
2023-03-26T01:42:30.344Z,37.51
2023-03-26T01:44:56.641Z,37.25
2023-03-26T01:47:23.003Z,37.53
2023-03-26T01:49:49.381Z,37.79
2023-03-26T01:52:15.739Z,37.61
2023-03-26T01:54:42.115Z,37.31
2023-03-26T01:57:08.524Z,37.68
2023-03-26T01:59:34.918Z,37.46
2023-03-26T02:02:01.395Z,37.63
2023-03-26T02:04:27.748Z,37.58
2023-03-26T02:06:54.057Z,37.72
2023-03-26T02:09:20.413Z,37.83
2023-03-26T02:11:46.775Z,37.72
2023-03-26T02:14:13.097Z,37.99
2023-03-26T02:16:39.511Z,37.89
2023-03-26T02:19:05.852Z,37.95
2023-03-26T02:21:32.183Z,38.29
2023-03-26T02:23:58.505Z,38.15
2023-03-26T02:26:24.867Z,38.01
2023-03-26T02:28:51.183Z,38.01
2023-03-26T02:31:17.502Z,38.10
2023-03-26T02:33:43.867Z,38.22
2023-03-26T02:36:10.360Z,38.37
2023-03-26T02:38:36.797Z,38.26
2023-03-26T02:41:03.155Z,38.39
2023-03-26T02:43:29.452Z,38.52
2023-03-26T02:45:56.002Z,38.63
2023-03-26T02:48:22.698Z,38.24
2023-03-26T02:50:49.010Z,38.57
2023-03-26T02:53:15.320Z,38.75
2023-03-26T02:55:41.662Z,38.40
2023-03-26T02:58:08.010Z,38.33
2023-03-26T03:00:34.374Z,38.44
2023-03-26T03:03:00.790Z,38.53
2023-03-26T03:05:27.194Z,38.73
2023-03-26T03:07:53.519Z,38.79
2023-03-26T03:10:19.863Z,38.72
2023-03-26T03:12:46.273Z,38.73
2023-03-26T03:15:12.616Z,38.46
2023-03-26T03:17:39.001Z,37.99
2023-03-26T03:20:05.345Z,38.51
2023-03-26T03:22:31.687Z,38.66
2023-03-26T03:24:58.011Z,38.45
2023-03-26T03:27:24.510Z,38.16
2023-03-26T03:29:50.803Z,38.18
2023-03-26T03:32:17.140Z,38.05
2023-03-26T03:34:43.500Z,38.47
2023-03-26T03:37:09.861Z,38.35
2023-03-26T03:39:36.181Z,38.55
2023-03-26T03:42:02.557Z,38.53
2023-03-26T03:44:28.937Z,38.18
2023-03-26T03:46:55.248Z,38.52
2023-03-26T03:49:21.592Z,38.09
2023-03-26T03:51:47.911Z,38.32
2023-03-26T03:54:14.241Z,38.23
2023-03-26T03:56:40.586Z,38.01
2023-03-26T03:59:06.961Z,38.30
2023-03-26T04:01:33.315Z,38.36
2023-03-26T04:03:59.656Z,38.56
2023-03-26T04:06:26.061Z,38.18
2023-03-26T04:08:52.402Z,38.31
2023-03-26T04:11:18.750Z,38.18
2023-03-26T04:13:45.107Z,38.15
2023-03-26T04:16:11.477Z,38.22
2023-03-26T04:18:37.888Z,38.16
2023-03-26T04:21:04.264Z,38.33
2023-03-26T04:23:30.661Z,38.10
2023-03-26T04:25:57.139Z,37.93
2023-03-26T04:28:23.609Z,37.94
2023-03-26T04:30:49.916Z,38.18
2023-03-26T04:33:16.278Z,37.68
2023-03-26T04:35:42.643Z,37.75
2023-03-26T04:38:08.941Z,37.82
2023-03-26T04:40:35.282Z,38.23
2023-03-26T04:43:01.669Z,37.94
2023-03-26T04:45:27.973Z,37.95
2023-03-26T04:47:54.337Z,37.75
2023-03-26T04:50:20.731Z,37.65
2023-03-26T04:52:47.094Z,37.66
2023-03-26T04:55:13.401Z,37.79
2023-03-26T04:57:39.713Z,37.71
2023-03-26T05:00:06.017Z,37.80
2023-03-26T05:02:32.421Z,37.87
2023-03-26T05:04:58.808Z,37.64
2023-03-26T05:07:25.125Z,37.85
2023-03-26T05:09:51.471Z,37.48
2023-03-26T05:12:17.804Z,37.89
2023-03-26T05:14:44.168Z,37.80
2023-03-26T05:17:10.466Z,37.90
2023-03-26T05:19:36.762Z,37.57
2023-03-26T05:22:03.163Z,37.94
2023-03-26T05:24:29.508Z,37.96
2023-03-26T05:26:55.802Z,37.37
2023-03-26T05:29:22.112Z,37.53
2023-03-26T05:31:48.398Z,37.57
2023-03-26T05:34:14.757Z,37.61
2023-03-26T05:36:41.058Z,37.53
2023-03-26T05:39:07.409Z,37.49
2023-03-26T05:41:33.715Z,37.38
2023-03-26T05:44:00.007Z,37.64
2023-03-26T05:46:26.394Z,37.34
2023-03-26T05:48:52.742Z,37.74
2023-03-26T05:51:19.105Z,37.60
2023-03-26T05:53:45.401Z,37.68
2023-03-26T05:56:11.715Z,37.53
2023-03-26T05:58:38.044Z,37.82
2023-03-26T06:01:04.337Z,37.64
2023-03-26T06:03:30.790Z,37.30
2023-03-26T06:05:57.190Z,37.67
2023-03-26T06:08:23.525Z,37.33
2023-03-26T06:10:49.843Z,37.44
2023-03-26T06:13:16.160Z,37.70
2023-03-26T06:15:42.533Z,37.21
2023-03-26T06:18:08.984Z,37.52
2023-03-26T06:20:35.331Z,37.13
2023-03-26T06:23:01.785Z,37.24
2023-03-26T06:25:29.214Z,36.96
2023-03-26T06:27:55.549Z,37.20
2023-03-26T06:30:21.898Z,37.29
2023-03-26T06:32:48.351Z,37.13
2023-03-26T06:35:14.704Z,36.94
2023-03-26T06:37:41.052Z,37.16
2023-03-26T06:40:07.379Z,37.19
2023-03-26T06:43:08.873Z,37.10
2023-03-26T06:45:20.011Z,37.20
2023-03-26T06:47:46.348Z,37.28
2023-03-26T06:50:12.740Z,37.01
2023-03-26T06:52:39.073Z,37.22
2023-03-26T06:55:05.408Z,36.98
2023-03-26T06:57:31.713Z,36.63
2023-03-26T06:59:58.054Z,36.81
2023-03-26T07:02:24.398Z,36.93
2023-03-26T07:04:50.715Z,36.70
2023-03-26T07:07:17.006Z,36.88
2023-03-26T07:09:43.301Z,36.65
2023-03-26T07:12:09.629Z,37.02
2023-03-26T07:14:35.930Z,36.44
2023-03-26T07:17:02.329Z,36.95
2023-03-26T07:19:28.672Z,36.77
2023-03-26T07:21:54.977Z,36.86
2023-03-26T07:24:21.261Z,36.68
2023-03-26T07:26:47.702Z,36.88
2023-03-26T07:29:14.067Z,36.84
2023-03-26T07:31:40.420Z,36.84
2023-03-26T07:34:06.733Z,36.99
2023-03-26T07:36:33.109Z,36.70
2023-03-26T07:38:59.398Z,36.99
2023-03-26T07:41:25.701Z,36.62
2023-03-26T07:43:52.062Z,36.81
2023-03-26T07:46:18.492Z,36.76
2023-03-26T07:48:44.825Z,36.60
2023-03-26T07:51:11.147Z,36.59
2023-03-26T07:53:37.518Z,36.81
2023-03-26T07:56:03.861Z,36.81
2023-03-26T07:58:30.306Z,36.91
2023-03-26T08:00:56.743Z,36.78
2023-03-26T08:03:23.372Z,36.41
2023-03-26T08:05:49.823Z,36.72
2023-03-26T08:08:16.162Z,36.51
2023-03-26T08:10:42.522Z,36.35
2023-03-26T08:13:08.821Z,36.75
2023-03-26T08:15:35.171Z,36.49
2023-03-26T08:18:01.532Z,36.34
2023-03-26T08:20:27.940Z,36.23
2023-03-26T08:22:54.282Z,36.61
2023-03-26T08:25:20.599Z,36.96
2023-03-26T08:27:46.883Z,36.79
2023-03-26T08:30:13.180Z,37.05
2023-03-26T08:32:39.521Z,36.68
2023-03-26T08:35:05.860Z,36.69
2023-03-26T08:37:32.211Z,36.72
2023-03-26T08:39:58.548Z,36.82
2023-03-26T08:42:24.910Z,36.63
2023-03-26T08:44:51.253Z,36.48
2023-03-26T08:47:17.607Z,36.37
2023-03-26T08:49:43.920Z,36.85
2023-03-26T08:52:10.315Z,36.71
2023-03-26T08:54:36.667Z,36.71
2023-03-26T08:57:03.049Z,36.75
2023-03-26T08:59:29.456Z,36.70
2023-03-26T09:01:55.848Z,36.64
2023-03-26T09:04:22.196Z,36.69
2023-03-26T09:06:48.541Z,36.86
2023-03-26T09:09:19.217Z,36.80
2023-03-26T09:11:45.884Z,36.82
2023-03-26T09:14:12.196Z,36.54
2023-03-26T09:16:38.553Z,36.34
2023-03-26T09:19:05.062Z,36.64
2023-03-26T09:21:31.375Z,36.57
2023-03-26T09:23:57.715Z,36.28
2023-03-26T09:26:24.075Z,36.47
2023-03-26T09:28:50.444Z,36.46
2023-03-26T09:31:16.837Z,36.50
2023-03-26T09:33:43.153Z,36.63
2023-03-26T09:36:09.598Z,36.40
2023-03-26T09:38:35.894Z,36.19
2023-03-26T09:41:02.219Z,36.01
2023-03-26T09:43:28.558Z,36.09
2023-03-26T09:45:54.881Z,36.23
2023-03-26T09:48:21.386Z,36.22
2023-03-26T09:50:47.685Z,36.47
2023-03-26T09:53:14.021Z,36.42
2023-03-26T09:55:40.332Z,36.24
2023-03-26T09:58:06.817Z,36.17
2023-03-26T10:00:33.188Z,36.07
2023-03-26T10:02:59.585Z,36.54
2023-03-26T10:05:25.951Z,36.43
2023-03-26T10:07:52.248Z,36.04
2023-03-26T10:10:18.543Z,36.23
2023-03-26T10:12:44.929Z,36.34
2023-03-26T10:15:11.274Z,36.23
2023-03-26T10:17:37.627Z,35.90
2023-03-26T10:20:03.965Z,36.14
2023-03-26T10:22:30.263Z,35.70
2023-03-26T10:24:56.612Z,36.04
2023-03-26T10:27:24.670Z,36.05
2023-03-26T10:29:51.185Z,36.13
2023-03-26T10:32:17.636Z,35.87
2023-03-26T10:34:43.937Z,35.64
2023-03-26T10:37:10.268Z,36.08
2023-03-26T10:39:38.990Z,36.20
2023-03-26T10:42:06.447Z,35.79
2023-03-26T10:44:32.749Z,35.99
2023-03-26T10:46:59.092Z,35.90
2023-03-26T10:49:25.473Z,35.81
2023-03-26T10:51:51.792Z,36.05
2023-03-26T10:54:18.109Z,35.76
2023-03-26T10:56:44.423Z,35.81
2023-03-26T10:59:10.777Z,35.54
2023-03-26T11:01:37.096Z,35.32
2023-03-26T11:04:03.522Z,35.62
2023-03-26T11:06:29.918Z,35.62
2023-03-26T11:08:56.280Z,35.78
2023-03-26T11:11:22.630Z,35.46
2023-03-26T11:13:48.994Z,35.54
2023-03-26T11:16:15.397Z,35.67
2023-03-26T11:18:41.755Z,35.73
2023-03-26T11:21:18.653Z,35.80
2023-03-26T11:23:46.751Z,35.69
2023-03-26T11:26:13.068Z,35.69
2023-03-26T11:28:39.377Z,35.79
2023-03-26T11:31:05.767Z,35.53
2023-03-26T11:33:32.571Z,35.02
2023-03-26T11:35:59.349Z,35.59
2023-03-26T11:38:25.689Z,35.83
2023-03-26T11:40:52.063Z,35.73
2023-03-26T11:43:18.515Z,35.94
2023-03-26T11:45:44.838Z,35.34
2023-03-26T11:48:11.210Z,35.53
2023-03-26T11:50:37.558Z,35.75
2023-03-26T11:53:03.862Z,35.56
2023-03-26T11:55:30.226Z,35.46
2023-03-26T11:57:56.574Z,35.77
2023-03-26T12:00:22.931Z,35.54
2023-03-26T12:02:49.348Z,35.23
2023-03-26T12:05:15.654Z,35.02
2023-03-26T12:07:42.105Z,35.61
2023-03-26T12:10:17.640Z,35.66
2023-03-26T12:12:45.392Z,35.67
2023-03-26T12:15:11.685Z,35.20
2023-03-26T12:17:38.088Z,35.10
2023-03-26T12:20:04.431Z,35.11
2023-03-26T12:22:30.791Z,35.36
2023-03-26T12:24:57.125Z,34.55
2023-03-26T12:27:23.465Z,35.15
2023-03-26T12:29:49.805Z,35.20
2023-03-26T12:32:16.115Z,35.09
2023-03-26T12:34:42.415Z,35.12
2023-03-26T12:37:08.739Z,35.38
2023-03-26T12:40:07.270Z,35.19
2023-03-26T12:44:41.742Z,35.50
2023-03-26T12:45:07.696Z,35.63
2023-03-26T12:48:00.848Z,35.38
2023-03-26T12:50:34.647Z,35.17
2023-03-26T12:53:02.063Z,35.73
2023-03-26T12:55:28.381Z,35.58
2023-03-26T12:57:54.725Z,35.50
2023-03-26T13:00:21.062Z,35.50
2023-03-26T13:02:47.595Z,35.87
2023-03-26T13:05:14.064Z,36.11
2023-03-26T13:07:40.460Z,35.67
2023-03-26T13:10:06.772Z,35.82
2023-03-26T13:12:33.072Z,36.06
2023-03-26T13:14:59.423Z,36.09
2023-03-26T13:17:25.805Z,35.91
2023-03-26T13:19:52.107Z,35.92
2023-03-26T13:22:18.404Z,35.63
2023-03-26T13:24:44.766Z,35.72
2023-03-26T13:27:11.070Z,36.32
2023-03-26T13:29:37.367Z,35.97
2023-03-26T13:32:03.734Z,36.15
2023-03-26T13:34:30.043Z,35.93
2023-03-26T13:36:56.441Z,35.85
2023-03-26T13:39:22.811Z,36.06
2023-03-26T13:41:49.172Z,36.01
2023-03-26T13:44:15.551Z,35.95
2023-03-26T13:46:41.942Z,35.65
2023-03-26T13:49:08.317Z,36.02
2023-03-26T13:51:34.695Z,35.75
2023-03-26T13:54:01.015Z,36.17
2023-03-26T13:56:27.319Z,36.16
2023-03-26T13:58:53.613Z,35.63
2023-03-26T14:01:20.006Z,36.03
2023-03-26T14:03:46.405Z,35.76
2023-03-26T14:06:12.768Z,35.65
2023-03-26T14:08:39.110Z,35.76
2023-03-26T14:11:05.447Z,35.79
2023-03-26T14:13:31.763Z,35.69
2023-03-26T14:15:58.222Z,35.52
2023-03-26T14:18:24.541Z,35.71
2023-03-26T14:20:50.878Z,35.85
2023-03-26T14:23:17.214Z,35.40
2023-03-26T14:25:43.562Z,35.75
2023-03-26T14:28:09.918Z,35.75
2023-03-26T14:30:40.660Z,35.97
2023-03-26T14:33:07.021Z,35.43
2023-03-26T14:35:33.387Z,35.24
2023-03-26T14:38:00.038Z,35.51
2023-03-26T14:40:26.416Z,35.79
2023-03-26T14:42:54.537Z,36.14
2023-03-26T14:45:22.799Z,35.97
2023-03-26T14:47:49.276Z,35.50
2023-03-26T14:50:15.724Z,35.63
2023-03-26T14:52:42.101Z,36.01
2023-03-26T14:55:08.402Z,35.71
2023-03-26T14:57:34.736Z,36.06
2023-03-26T15:00:01.125Z,36.21
2023-03-26T15:02:27.545Z,35.92
2023-03-26T15:04:53.989Z,36.38
2023-03-26T15:07:20.331Z,35.98
2023-03-26T15:09:46.631Z,36.31
2023-03-26T15:12:13.673Z,36.44
2023-03-26T15:14:40.059Z,36.24
2023-03-26T15:17:06.449Z,36.52
2023-03-26T15:19:32.808Z,36.40
2023-03-26T15:21:59.124Z,36.15
2023-03-26T15:24:25.478Z,36.47
2023-03-26T15:26:51.827Z,36.18
2023-03-26T15:29:18.227Z,36.30
2023-03-26T15:31:44.613Z,36.61
2023-03-26T15:34:10.989Z,36.60
2023-03-26T15:36:37.682Z,36.41
2023-03-26T15:39:03.981Z,36.77
2023-03-26T15:41:30.330Z,36.55
2023-03-26T15:44:24.938Z,36.64
2023-03-26T15:46:44.182Z,36.74
2023-03-26T15:49:10.523Z,36.65
2023-03-26T15:51:47.410Z,36.52
2023-03-26T15:54:14.135Z,36.97
2023-03-26T15:56:40.587Z,36.73
2023-03-26T15:59:06.985Z,36.60
2023-03-26T16:01:33.337Z,37.20
2023-03-26T16:03:59.720Z,36.80
2023-03-26T16:06:26.061Z,36.54
2023-03-26T16:08:52.358Z,36.87
2023-03-26T16:11:18.879Z,36.75
2023-03-26T16:13:45.241Z,36.59
2023-03-26T16:16:11.677Z,36.83
2023-03-26T16:18:38.055Z,36.93
2023-03-26T16:21:04.506Z,36.85
2023-03-26T16:23:30.930Z,36.46
2023-03-26T16:25:57.232Z,36.41
2023-03-26T16:28:23.567Z,36.36
2023-03-26T16:30:49.885Z,36.49
2023-03-26T16:33:16.208Z,36.33
2023-03-26T16:35:42.597Z,36.64
2023-03-26T16:38:08.992Z,36.87
2023-03-26T16:40:35.327Z,36.93
2023-03-26T16:43:01.642Z,36.26
2023-03-26T16:45:27.936Z,36.43
2023-03-26T16:47:54.275Z,36.67
2023-03-26T16:50:20.672Z,36.91
2023-03-26T16:52:47.092Z,37.08
2023-03-26T16:55:13.470Z,36.92
2023-03-26T16:57:39.849Z,36.96
2023-03-26T17:00:07.389Z,36.71
2023-03-26T17:02:34.181Z,37.18
2023-03-26T17:05:00.620Z,36.71
2023-03-26T17:07:26.941Z,36.98
2023-03-26T17:09:53.239Z,36.63
2023-03-26T17:12:19.561Z,37.04
2023-03-26T17:14:45.888Z,36.65
2023-03-26T17:17:12.186Z,36.56
2023-03-26T17:19:38.517Z,37.00
2023-03-26T17:22:04.904Z,37.03
2023-03-26T17:24:31.254Z,37.17
2023-03-26T17:26:57.562Z,37.00
2023-03-26T17:29:23.867Z,36.85
2023-03-26T17:31:50.192Z,36.72
2023-03-26T17:34:16.585Z,36.81
2023-03-26T17:36:42.920Z,36.88
2023-03-26T17:39:09.234Z,36.65
2023-03-26T17:41:35.612Z,37.05
2023-03-26T17:44:01.965Z,37.08
2023-03-26T17:46:28.346Z,37.22
2023-03-26T17:48:54.697Z,36.86
2023-03-26T17:51:21.051Z,37.32
2023-03-26T17:53:47.430Z,37.14
2023-03-26T17:56:13.749Z,37.01
2023-03-26T17:58:40.041Z,37.15
2023-03-26T18:01:06.441Z,36.67
2023-03-26T18:03:32.823Z,36.79
2023-03-26T18:05:59.234Z,36.88
2023-03-26T18:08:25.684Z,36.91
2023-03-26T18:10:51.991Z,36.53
2023-03-26T18:13:18.342Z,36.60
2023-03-26T18:15:45.066Z,36.77
2023-03-26T18:18:11.501Z,36.96
2023-03-26T18:20:37.835Z,36.91
2023-03-26T18:23:04.189Z,36.93
2023-03-26T18:25:30.482Z,36.61
2023-03-26T18:27:56.835Z,37.06
2023-03-26T18:30:23.158Z,36.73
2023-03-26T18:32:49.472Z,36.97
2023-03-26T18:35:15.859Z,36.72
2023-03-26T18:37:42.255Z,36.70
2023-03-26T18:40:08.572Z,36.87
2023-03-26T18:42:34.879Z,36.66
2023-03-26T18:45:03.290Z,36.42
2023-03-26T18:47:31.110Z,36.38
2023-03-26T18:49:57.436Z,36.95
2023-03-26T18:52:23.805Z,36.67
2023-03-26T18:54:50.165Z,36.39
2023-03-26T18:57:16.638Z,36.53
2023-03-26T18:59:42.985Z,36.30
2023-03-26T19:02:09.467Z,36.33
2023-03-26T19:04:35.869Z,36.34
2023-03-26T19:07:02.190Z,36.27
2023-03-26T19:09:31.760Z,36.34
2023-03-26T19:11:58.879Z,36.35
2023-03-26T19:14:25.212Z,36.61
2023-03-26T19:16:51.772Z,36.20
2023-03-26T19:19:18.131Z,36.54
2023-03-26T19:21:44.424Z,36.09
2023-03-26T19:24:10.742Z,36.36
2023-03-26T19:26:37.046Z,36.33
2023-03-26T19:29:03.411Z,36.10
2023-03-26T19:31:29.736Z,36.37
2023-03-26T19:33:56.128Z,36.16
2023-03-26T19:36:22.617Z,36.23
2023-03-26T19:38:48.968Z,36.37
2023-03-26T19:41:15.294Z,36.35
2023-03-26T19:43:41.608Z,36.23
2023-03-26T19:46:08.149Z,36.52
2023-03-26T19:48:46.797Z,36.25
2023-03-26T19:51:13.463Z,36.28
2023-03-26T19:53:39.815Z,36.46
2023-03-26T19:56:06.427Z,36.31
2023-03-26T19:58:32.906Z,36.24
2023-03-26T20:00:59.515Z,36.34
2023-03-26T20:03:26.281Z,36.31
2023-03-26T20:05:52.911Z,36.15
2023-03-26T20:08:19.253Z,36.66
2023-03-26T20:10:45.579Z,36.45
2023-03-26T20:13:11.884Z,36.70
2023-03-26T20:15:38.186Z,36.50
2023-03-26T20:18:04.579Z,36.79
2023-03-26T20:20:30.904Z,36.69
2023-03-26T20:22:57.245Z,36.66
2023-03-26T20:25:23.563Z,36.86
2023-03-26T20:27:49.909Z,36.63
2023-03-26T20:30:19.058Z,37.01
2023-03-26T20:32:45.732Z,37.08
2023-03-26T20:35:12.465Z,36.66
2023-03-26T20:37:38.821Z,36.52
2023-03-26T20:40:05.198Z,36.81
2023-03-26T20:42:31.547Z,36.90
2023-03-26T20:44:57.857Z,36.63
2023-03-26T20:47:24.264Z,36.93
2023-03-26T20:49:50.604Z,36.97
2023-03-26T20:52:16.912Z,36.69
2023-03-26T20:54:43.227Z,36.47
2023-03-26T20:57:09.627Z,36.88
2023-03-26T20:59:36.124Z,36.69
2023-03-26T21:02:02.528Z,36.53
2023-03-26T21:04:28.920Z,36.62
2023-03-26T21:07:03.220Z,36.58
2023-03-26T21:09:33.853Z,36.67
2023-03-26T21:12:00.191Z,36.39
2023-03-26T21:14:26.547Z,36.59
2023-03-26T21:16:52.940Z,36.90
2023-03-26T21:19:19.362Z,36.55
2023-03-26T21:21:45.678Z,36.62
2023-03-26T21:24:12.019Z,36.39
2023-03-26T21:26:41.723Z,36.70
2023-03-26T21:29:08.313Z,36.20
2023-03-26T21:31:34.693Z,36.28
2023-03-26T21:34:01.064Z,36.39
2023-03-26T21:36:27.477Z,36.30
2023-03-26T21:38:53.865Z,36.12
2023-03-26T21:41:20.239Z,36.31
2023-03-26T21:43:46.585Z,36.16
2023-03-26T21:46:12.934Z,35.73
2023-03-26T21:48:39.333Z,35.80
2023-03-26T21:51:05.637Z,35.90
2023-03-26T21:53:31.981Z,36.10
2023-03-26T21:55:58.345Z,35.69
2023-03-26T21:58:24.705Z,35.30
2023-03-26T22:00:51.091Z,35.87
2023-03-26T22:03:17.527Z,35.34
2023-03-26T22:05:43.894Z,35.33
2023-03-26T22:08:10.240Z,35.64
2023-03-26T22:10:36.586Z,35.65
2023-03-26T22:13:02.921Z,35.48
2023-03-26T22:15:29.267Z,35.48
2023-03-26T22:17:55.725Z,35.16
2023-03-26T22:20:22.176Z,35.45
2023-03-26T22:22:48.544Z,35.45
2023-03-26T22:25:14.888Z,35.40
2023-03-26T22:27:43.849Z,34.94
2023-03-26T22:30:11.347Z,35.03
2023-03-26T22:32:37.653Z,34.93
2023-03-26T22:35:03.968Z,35.33
2023-03-26T22:37:30.278Z,35.13
2023-03-26T22:39:56.608Z,34.76
2023-03-26T22:42:22.938Z,34.94
2023-03-26T22:44:49.307Z,34.87
2023-03-26T22:47:15.606Z,34.99
2023-03-26T22:49:41.925Z,34.78
2023-03-26T22:52:08.226Z,34.78
2023-03-26T22:54:34.519Z,34.72
2023-03-26T22:57:00.901Z,34.42
2023-03-26T22:59:27.247Z,34.55
2023-03-26T23:01:53.632Z,34.70
2023-03-26T23:04:31.611Z,34.61
2023-03-26T23:06:58.641Z,34.73
2023-03-26T23:09:24.997Z,34.48
2023-03-26T23:11:51.318Z,34.30
2023-03-26T23:14:17.670Z,34.41
2023-03-26T23:16:43.979Z,34.37
2023-03-26T23:19:10.294Z,34.31
2023-03-26T23:21:36.662Z,34.45
2023-03-26T23:24:03.049Z,34.54
2023-03-26T23:26:35.001Z,34.39
2023-03-26T23:29:04.215Z,34.28
2023-03-26T23:31:30.634Z,34.33
2023-03-26T23:33:57.026Z,34.70
2023-03-26T23:36:23.374Z,34.37
2023-03-26T23:38:49.731Z,34.54
2023-03-26T23:41:16.106Z,33.91
2023-03-26T23:43:54.645Z,34.27
2023-03-26T23:46:21.746Z,34.32
2023-03-26T23:48:48.068Z,34.04
2023-03-26T23:51:14.406Z,33.95
2023-03-26T23:53:40.726Z,33.78
2023-03-26T23:56:07.053Z,33.65
2023-03-26T23:58:33.389Z,34.13
